createdAt,value
2023-01-08T00:01:50.431Z,35.15
2023-01-08T00:04:22.422Z,34.90
2023-01-08T00:06:54.359Z,35.47
2023-01-08T00:09:26.389Z,35.75
2023-01-08T00:11:58.298Z,32.88
2023-01-08T00:14:30.968Z,33.67
2023-01-08T00:17:04.828Z,33.22
2023-01-08T00:19:36.828Z,33.50
2023-01-08T00:22:08.862Z,34.92
2023-01-08T00:24:40.813Z,33.80
2023-01-08T00:27:12.764Z,33.60
2023-01-08T00:29:44.835Z,31.90
2023-01-08T00:32:16.826Z,33.35
2023-01-08T00:34:48.812Z,35.50
2023-01-08T00:37:21.024Z,33.58
2023-01-08T00:39:52.966Z,36.33
2023-01-08T00:42:24.933Z,32.92
2023-01-08T00:44:56.936Z,34.67
2023-01-08T00:47:28.913Z,34.88
2023-01-08T00:50:00.906Z,35.05
2023-01-08T00:52:32.842Z,34.65
2023-01-08T00:55:05.291Z,34.83
2023-01-08T00:57:39.287Z,32.83
2023-01-08T01:00:14.433Z,32.92
2023-01-08T01:02:46.533Z,32.17
2023-01-08T01:05:18.556Z,34.20
2023-01-08T01:07:50.655Z,33.97
2023-01-08T01:10:23.325Z,32.95
2023-01-08T01:12:55.260Z,33.15
2023-01-08T01:15:27.374Z,32.58
2023-01-08T01:17:59.315Z,29.52
2023-01-08T01:20:31.210Z,30.00
2023-01-08T01:23:04.522Z,30.13
2023-01-08T01:25:39.369Z,28.50
2023-01-08T01:28:11.313Z,28.63
2023-01-08T01:30:43.502Z,27.63
2023-01-08T01:33:15.493Z,26.85
2023-01-08T01:35:47.518Z,24.92
2023-01-08T01:38:19.479Z,24.88
2023-01-08T01:40:51.402Z,23.75
2023-01-08T01:43:42.016Z,24.50
2023-01-08T01:46:40.023Z,23.58
2023-01-08T01:49:18.248Z,22.73
2023-01-08T01:51:56.211Z,21.33
2023-01-08T01:54:30.115Z,21.13
2023-01-08T01:57:02.263Z,20.88
2023-01-08T01:59:34.189Z,23.48
2023-01-08T02:02:06.476Z,23.27
2023-01-08T02:04:38.525Z,22.00
2023-01-08T02:07:50.895Z,22.17
2023-01-08T02:10:30.109Z,21.20
2023-01-08T02:13:09.312Z,22.42
2023-01-08T02:15:53.249Z,21.65
2023-01-08T02:18:37.998Z,20.25
2023-01-08T02:21:13.719Z,20.67
2023-01-08T02:24:11.413Z,19.65
2023-01-08T02:26:46.191Z,19.10
2023-01-08T02:29:26.051Z,20.80
2023-01-08T02:31:58.307Z,20.63
2023-01-08T02:34:32.415Z,19.63
2023-01-08T02:37:04.860Z,18.88
2023-01-08T02:40:07.402Z,18.50
2023-01-08T02:42:57.323Z,16.58
2023-01-08T02:45:52.648Z,16.92
2023-01-08T02:48:24.704Z,16.05
2023-01-08T02:51:05.809Z,16.30
2023-01-08T02:53:43.327Z,15.27
2023-01-08T02:56:19.678Z,16.05
2023-01-08T02:58:54.293Z,14.85
2023-01-08T03:01:28.234Z,16.27
2023-01-08T03:04:06.972Z,16.85
2023-01-08T03:06:39.108Z,16.60
2023-01-08T03:09:12.151Z,15.77
2023-01-08T03:11:55.054Z,14.57
2023-01-08T03:14:35.535Z,14.57
2023-01-08T03:17:10.791Z,13.55
2023-01-08T03:19:49.238Z,15.40
2023-01-08T03:22:23.190Z,14.30
2023-01-08T03:24:57.119Z,13.00
2023-01-08T03:27:32.916Z,13.05
2023-01-08T03:30:08.056Z,11.57
2023-01-08T03:32:42.493Z,11.93
2023-01-08T03:35:18.412Z,11.95
2023-01-08T03:38:00.913Z,12.40
2023-01-08T03:40:39.904Z,11.05
2023-01-08T03:43:12.077Z,10.27
2023-01-08T03:45:52.006Z,11.10
2023-01-08T03:48:25.486Z,11.23
2023-01-08T03:50:57.526Z,12.02
2023-01-08T03:53:29.521Z,12.18
2023-01-08T03:56:01.438Z,13.18
2023-01-08T03:58:33.397Z,12.95
2023-01-08T04:01:05.592Z,13.75
2023-01-08T04:03:38.267Z,13.18
2023-01-08T04:06:10.745Z,13.48
2023-01-08T04:08:42.657Z,11.70
2023-01-08T04:11:14.671Z,12.48
2023-01-08T04:13:46.638Z,11.10
2023-01-08T04:16:18.729Z,10.63
2023-01-08T04:18:50.822Z,11.30
2023-01-08T04:21:22.766Z,10.68
2023-01-08T04:23:55.756Z,9.85
2023-01-08T04:26:27.705Z,10.45
2023-01-08T04:29:02.401Z,10.13
2023-01-08T04:31:34.324Z,10.63
2023-01-08T04:34:06.345Z,10.93
2023-01-08T04:36:38.618Z,11.00
2023-01-08T04:39:11.660Z,10.27
2023-01-08T04:41:43.502Z,9.75
2023-01-08T04:44:15.432Z,10.77
2023-01-08T04:46:47.395Z,10.32
2023-01-08T04:49:19.421Z,10.43
2023-01-08T04:51:51.372Z,10.27
2023-01-08T04:54:23.383Z,10.27
2023-01-08T04:56:55.366Z,10.40
2023-01-08T04:59:27.337Z,10.43
2023-01-08T05:01:59.473Z,10.82
2023-01-08T05:04:31.752Z,10.10
2023-01-08T05:07:04.651Z,11.10
2023-01-08T05:09:36.613Z,9.93
2023-01-08T05:12:08.620Z,10.20
2023-01-08T05:14:40.552Z,11.43
2023-01-08T05:17:12.515Z,11.65
2023-01-08T05:19:44.476Z,11.30
2023-01-08T05:22:16.460Z,10.80
2023-01-08T05:24:48.371Z,10.65
2023-01-08T05:27:20.749Z,10.80
2023-01-08T05:29:52.840Z,11.73
2023-01-08T05:32:24.785Z,11.30
2023-01-08T05:34:57.092Z,11.70
2023-01-08T05:37:29.005Z,11.68
2023-01-08T05:40:01.016Z,12.02
2023-01-08T05:42:35.594Z,10.80
2023-01-08T05:45:08.417Z,10.73
2023-01-08T05:47:40.394Z,10.15
2023-01-08T05:50:12.445Z,10.40
2023-01-08T05:52:44.727Z,11.75
2023-01-08T05:55:16.754Z,10.82
2023-01-08T05:57:48.741Z,10.75
2023-01-08T06:00:20.960Z,10.70
2023-01-08T06:02:52.923Z,10.45
2023-01-08T06:05:25.089Z,11.27
2023-01-08T06:07:57.836Z,11.45
2023-01-08T06:10:29.676Z,11.93
2023-01-08T06:13:02.666Z,11.13
2023-01-08T06:15:34.676Z,11.55
2023-01-08T06:18:06.839Z,11.68
2023-01-08T06:20:38.878Z,11.20
2023-01-08T06:23:10.915Z,11.70
2023-01-08T06:25:42.796Z,13.00
2023-01-08T06:28:14.628Z,13.40
2023-01-08T06:30:46.528Z,14.68
2023-01-08T06:33:21.180Z,12.98
2023-01-08T06:35:53.489Z,13.15
2023-01-08T06:38:25.353Z,13.73
2023-01-08T06:40:57.219Z,13.27
2023-01-08T06:43:29.208Z,14.32
2023-01-08T06:46:01.644Z,14.32
2023-01-08T06:48:33.611Z,13.40
2023-01-08T06:51:06.022Z,14.02
2023-01-08T06:53:37.993Z,14.02
2023-01-08T06:56:11.401Z,13.27
2023-01-08T06:58:43.386Z,14.82
2023-01-08T07:01:16.983Z,14.13
2023-01-08T07:03:49.322Z,15.10
2023-01-08T07:06:22.538Z,16.40
2023-01-08T07:08:54.492Z,16.35
2023-01-08T07:11:26.489Z,16.45
2023-01-08T07:13:58.434Z,16.95
2023-01-08T07:16:30.439Z,16.45
2023-01-08T07:19:02.399Z,15.55
2023-01-08T07:21:34.560Z,15.57
2023-01-08T07:24:07.934Z,16.58
2023-01-08T07:26:40.166Z,16.50
2023-01-08T07:29:12.012Z,17.58
2023-01-08T07:31:44.027Z,15.70
2023-01-08T07:34:16.133Z,15.50
2023-01-08T07:36:48.068Z,15.18
2023-01-08T07:39:20.032Z,14.38
2023-01-08T07:41:51.953Z,14.25
2023-01-08T07:44:24.007Z,14.95
2023-01-08T07:46:56.003Z,14.63
2023-01-08T07:49:27.989Z,16.00
2023-01-08T07:51:59.946Z,16.05
2023-01-08T07:54:31.879Z,16.15
2023-01-08T07:57:03.918Z,15.93
2023-01-08T07:59:35.812Z,14.23
2023-01-08T08:02:07.968Z,15.18
2023-01-08T08:04:40.007Z,15.10
2023-01-08T08:07:11.972Z,13.80
2023-01-08T08:09:43.935Z,15.43
2023-01-08T08:12:15.880Z,14.57
2023-01-08T08:14:47.841Z,14.18
2023-01-08T08:17:19.878Z,15.52
2023-01-08T08:19:51.848Z,14.27
2023-01-08T08:22:23.798Z,14.23
2023-01-08T08:24:55.759Z,15.07
2023-01-08T08:27:27.739Z,17.08
2023-01-08T08:30:00.105Z,18.48
2023-01-08T08:32:32.059Z,19.58
2023-01-08T08:35:05.803Z,16.83
2023-01-08T08:37:37.829Z,14.75
2023-01-08T08:40:10.262Z,14.75
2023-01-08T08:42:42.175Z,14.93
2023-01-08T08:45:14.389Z,14.43
2023-01-08T08:47:46.387Z,16.10
2023-01-08T08:50:18.901Z,14.15
2023-01-08T08:52:50.840Z,15.65
2023-01-08T08:55:22.860Z,15.82
2023-01-08T08:57:54.798Z,15.65
2023-01-08T09:00:26.723Z,15.48
2023-01-08T09:02:58.905Z,16.92
2023-01-08T09:05:30.931Z,17.20
2023-01-08T09:08:02.844Z,15.82
2023-01-08T09:10:36.589Z,16.67
2023-01-08T09:13:09.367Z,15.38
2023-01-08T09:15:41.318Z,16.05
2023-01-08T09:18:15.838Z,16.45
2023-01-08T09:20:48.182Z,16.95
2023-01-08T09:23:20.338Z,16.77
2023-01-08T09:26:00.263Z,17.05
2023-01-08T09:28:32.840Z,17.00
2023-01-08T09:31:05.396Z,16.80
2023-01-08T09:33:37.402Z,15.73
2023-01-08T09:36:11.974Z,16.25
2023-01-08T09:38:45.295Z,16.27
2023-01-08T09:41:27.115Z,16.83
2023-01-08T09:44:01.438Z,16.52
2023-01-08T09:46:35.016Z,17.17
2023-01-08T09:49:11.417Z,17.65
2023-01-08T09:51:43.609Z,16.92
2023-01-08T09:54:18.008Z,16.98
2023-01-08T09:56:50.117Z,17.63
2023-01-08T09:59:22.957Z,16.48
2023-01-08T10:01:55.255Z,19.13
2023-01-08T10:04:30.318Z,18.95
2023-01-08T10:07:16.170Z,17.70
2023-01-08T10:09:50.576Z,16.20
2023-01-08T10:12:30.882Z,16.35
2023-01-08T10:15:06.091Z,17.35
2023-01-08T10:17:41.028Z,17.30
2023-01-08T10:20:20.979Z,17.75
2023-01-08T10:22:57.236Z,19.70
2023-01-08T10:25:29.309Z,18.33
2023-01-08T10:28:03.546Z,18.63
2023-01-08T10:30:38.504Z,19.30
2023-01-08T10:33:25.756Z,19.40
2023-01-08T10:36:03.836Z,18.70
2023-01-08T10:38:48.624Z,18.88
2023-01-08T10:41:21.854Z,18.05
2023-01-08T10:44:02.164Z,19.15
2023-01-08T10:46:41.916Z,19.20
2023-01-08T10:49:29.308Z,19.25
2023-01-08T10:52:01.708Z,18.70
2023-01-08T10:54:39.792Z,18.85
2023-01-08T10:57:28.726Z,18.48
2023-01-08T11:00:00.756Z,18.73
2023-01-08T11:02:38.141Z,17.90
2023-01-08T11:05:11.773Z,18.38
2023-01-08T11:07:48.148Z,19.98
2023-01-08T11:10:23.542Z,17.42
2023-01-08T11:12:57.990Z,19.00
2023-01-08T11:15:34.849Z,19.75
2023-01-08T11:18:27.871Z,19.23
2023-01-08T11:21:11.372Z,19.35
2023-01-08T11:23:43.307Z,19.65
2023-01-08T11:26:20.910Z,20.50
2023-01-08T11:29:11.009Z,20.17
2023-01-08T11:32:08.756Z,20.93
2023-01-08T11:35:05.444Z,20.50
2023-01-08T11:37:40.714Z,21.55
2023-01-08T11:40:18.214Z,21.88
2023-01-08T11:43:14.496Z,20.52
2023-01-08T11:45:49.377Z,23.13
2023-01-08T11:48:36.448Z,20.85
2023-01-08T11:51:08.376Z,20.92
2023-01-08T11:54:04.981Z,20.83
2023-01-08T11:56:48.824Z,19.85
2023-01-08T11:59:44.488Z,22.02
2023-01-08T12:02:44.751Z,21.77
2023-01-08T12:05:38.496Z,21.80
2023-01-08T12:08:28.309Z,22.42
2023-01-08T12:11:17.841Z,21.95
2023-01-08T12:14:07.212Z,22.30
2023-01-08T12:17:09.945Z,21.40
2023-01-08T12:20:08.064Z,20.92
2023-01-08T12:23:00.538Z,23.02
2023-01-08T12:25:43.460Z,22.25
2023-01-08T12:29:09.575Z,22.10
2023-01-08T12:31:46.356Z,21.65
2023-01-08T12:34:46.674Z,21.60
2023-01-08T12:37:31.097Z,21.67
2023-01-08T12:40:22.720Z,21.38
2023-01-08T12:43:00.957Z,23.50
2023-01-08T12:45:40.982Z,24.23
2023-01-08T12:48:20.842Z,23.77
2023-01-08T12:51:21.365Z,25.45
2023-01-08T12:54:03.235Z,26.30
2023-01-08T12:57:25.036Z,24.35
2023-01-08T13:00:05.344Z,26.30
2023-01-08T13:03:03.474Z,26.35
2023-01-08T13:05:37.959Z,29.58
2023-01-08T13:08:34.526Z,29.90
2023-01-08T13:11:07.883Z,27.17
2023-01-08T13:13:45.428Z,29.23
2023-01-08T13:16:22.423Z,27.50
2023-01-08T13:19:02.914Z,29.80
2023-01-08T13:21:39.772Z,30.75
2023-01-08T13:24:37.421Z,29.77
2023-01-08T13:27:15.199Z,28.08
2023-01-08T13:29:51.485Z,28.00
2023-01-08T13:32:43.262Z,30.33
2023-01-08T13:35:15.260Z,32.38
2023-01-08T13:37:51.876Z,30.25
2023-01-08T13:40:46.425Z,30.67
2023-01-08T13:43:31.794Z,32.10
2023-01-08T13:46:03.839Z,31.58
2023-01-08T13:48:39.762Z,35.65
2023-01-08T13:51:34.329Z,33.17
2023-01-08T13:54:33.243Z,33.85
2023-01-08T13:57:12.912Z,32.63
2023-01-08T13:59:57.759Z,31.25
2023-01-08T14:02:32.891Z,31.73
2023-01-08T14:05:19.495Z,29.23
2023-01-08T14:07:52.013Z,29.83
2023-01-08T14:10:24.610Z,30.02
2023-01-08T14:13:08.861Z,30.50
2023-01-08T14:15:40.895Z,30.05
2023-01-08T14:18:14.553Z,29.17
2023-01-08T14:20:50.813Z,29.98
2023-01-08T14:23:30.651Z,31.88
2023-01-08T14:26:09.014Z,28.23
2023-01-08T14:28:52.039Z,27.40
2023-01-08T14:31:26.956Z,29.48
2023-01-08T14:34:00.939Z,27.30
2023-01-08T14:36:33.121Z,28.20
2023-01-08T14:39:11.756Z,27.83
2023-01-08T14:42:02.063Z,30.33
2023-01-08T14:44:40.423Z,28.77
2023-01-08T14:47:18.558Z,30.33
2023-01-08T14:49:54.337Z,30.35
2023-01-08T14:52:26.759Z,28.85
2023-01-08T14:55:03.451Z,31.08
2023-01-08T14:57:35.378Z,29.58
2023-01-08T15:00:14.931Z,30.20
2023-01-08T15:02:48.706Z,29.58
2023-01-08T15:05:28.870Z,30.08
2023-01-08T15:08:22.442Z,30.45
2023-01-08T15:11:00.628Z,30.42
2023-01-08T15:13:35.247Z,29.40
2023-01-08T15:16:35.460Z,29.52
2023-01-08T15:19:11.933Z,28.85
2023-01-08T15:21:52.009Z,28.02
2023-01-08T15:24:34.648Z,29.67
2023-01-08T15:27:10.558Z,28.83
2023-01-08T15:29:51.667Z,28.88
2023-01-08T15:32:24.334Z,29.77
2023-01-08T15:34:56.336Z,30.05
2023-01-08T15:37:28.571Z,28.67
2023-01-08T15:40:01.040Z,28.42
2023-01-08T15:42:52.503Z,27.83
2023-01-08T15:45:32.158Z,29.55
2023-01-08T15:48:05.097Z,28.27
2023-01-08T15:50:40.711Z,29.15
2023-01-08T15:53:17.781Z,28.83
2023-01-08T15:55:50.142Z,30.27
2023-01-08T15:58:22.000Z,29.80
2023-01-08T16:00:53.986Z,31.13
2023-01-08T16:03:26.217Z,32.90
2023-01-08T16:05:58.180Z,30.23
2023-01-08T16:08:30.133Z,31.92
2023-01-08T16:11:02.120Z,34.42
2023-01-08T16:13:34.137Z,31.27
2023-01-08T16:16:14.904Z,32.65
2023-01-08T16:21:18.807Z,31.17
2023-01-08T16:23:50.898Z,30.30
2023-01-08T16:26:22.820Z,31.42
2023-01-08T16:28:55.518Z,33.78
2023-01-08T16:31:27.563Z,30.58
2023-01-08T16:34:03.703Z,30.65
2023-01-08T16:36:36.347Z,29.40
2023-01-08T16:39:08.321Z,30.20
2023-01-08T16:41:40.459Z,30.58
2023-01-08T16:44:26.901Z,30.92
2023-01-08T16:47:01.698Z,31.20
2023-01-08T16:49:33.877Z,30.83
2023-01-08T16:52:06.012Z,31.55
2023-01-08T16:54:38.192Z,31.45
2023-01-08T16:57:10.159Z,31.70
2023-01-08T16:59:42.140Z,32.67
2023-01-08T17:02:14.137Z,30.60
2023-01-08T17:04:46.051Z,30.58
2023-01-08T17:07:18.070Z,31.77
2023-01-08T17:09:50.031Z,32.70
2023-01-08T17:12:24.793Z,33.40
2023-01-08T17:14:56.819Z,33.88
2023-01-08T17:17:28.776Z,30.27
2023-01-08T17:20:00.804Z,29.27
2023-01-08T17:22:32.901Z,31.05
2023-01-08T17:25:05.268Z,30.55
2023-01-08T17:27:37.422Z,31.80
2023-01-08T17:30:11.367Z,31.38
2023-01-08T17:32:43.298Z,33.03
2023-01-08T17:35:15.307Z,30.50
2023-01-08T17:37:47.368Z,31.05
2023-01-08T17:40:19.395Z,33.25
2023-01-08T17:42:51.365Z,30.35
2023-01-08T17:45:23.532Z,31.33
2023-01-08T17:47:55.419Z,30.73
2023-01-08T17:50:27.303Z,30.65
2023-01-08T17:53:00.037Z,32.05
2023-01-08T17:55:31.955Z,31.90
2023-01-08T17:58:03.841Z,30.33
2023-01-08T18:00:35.716Z,33.00
2023-01-08T18:03:07.575Z,32.53
2023-01-08T18:05:39.411Z,34.55
2023-01-08T18:08:11.288Z,32.47
2023-01-08T18:10:43.125Z,32.90
2023-01-08T18:13:15.254Z,32.40
2023-01-08T18:15:47.108Z,29.67
2023-01-08T18:18:19.019Z,30.63
2023-01-08T18:20:54.692Z,30.42
2023-01-08T18:23:26.795Z,32.65
2023-01-08T18:26:05.168Z,32.90
2023-01-08T18:28:47.228Z,32.40
2023-01-08T18:31:19.442Z,33.00
2023-01-08T18:33:52.693Z,30.92
2023-01-08T18:36:24.689Z,30.58
2023-01-08T18:38:57.835Z,32.10
2023-01-08T18:41:48.197Z,31.00
2023-01-08T18:44:20.221Z,31.30
2023-01-08T18:46:52.226Z,33.22
2023-01-08T18:49:24.862Z,33.33
2023-01-08T18:51:56.854Z,35.35
2023-01-08T18:54:29.224Z,33.10
2023-01-08T18:57:01.271Z,33.92
2023-01-08T18:59:33.300Z,34.63
2023-01-08T19:02:05.677Z,36.72
2023-01-08T19:04:37.643Z,36.08
2023-01-08T19:07:09.602Z,32.90
2023-01-08T19:09:41.684Z,35.50
2023-01-08T19:12:13.671Z,34.60
2023-01-08T19:14:47.084Z,34.58
2023-01-08T19:17:19.205Z,34.15
2023-01-08T19:19:51.236Z,36.70
2023-01-08T19:22:26.997Z,36.78
2023-01-08T19:24:59.576Z,35.25
2023-01-08T19:27:31.524Z,36.08
2023-01-08T19:30:04.472Z,31.48
2023-01-08T19:32:36.590Z,34.85
2023-01-08T19:35:08.957Z,33.35
2023-01-08T19:37:40.796Z,33.17
2023-01-08T19:40:13.286Z,33.28
2023-01-08T19:43:03.886Z,33.38
2023-01-08T19:45:37.617Z,35.22
2023-01-08T19:48:09.601Z,32.03
2023-01-08T19:50:41.898Z,31.90
2023-01-08T19:53:14.660Z,33.88
2023-01-08T19:55:46.716Z,36.33
2023-01-08T19:58:19.792Z,37.40
2023-01-08T20:00:56.465Z,34.22
2023-01-08T20:03:29.037Z,34.05
2023-01-08T20:06:00.883Z,35.45
2023-01-08T20:08:32.816Z,35.15
2023-01-08T20:11:07.296Z,35.80
2023-01-08T20:13:39.521Z,37.00
2023-01-08T20:16:14.009Z,36.25
2023-01-08T20:18:46.117Z,37.30
2023-01-08T20:21:24.343Z,34.22
2023-01-08T20:24:02.720Z,32.88
2023-01-08T20:26:36.456Z,36.75
2023-01-08T20:29:08.723Z,36.88
2023-01-08T20:31:41.363Z,36.58
2023-01-08T20:34:16.322Z,37.95
2023-01-08T20:36:48.325Z,34.42
2023-01-08T20:39:20.313Z,36.85
2023-01-08T20:41:55.900Z,36.08
2023-01-08T20:44:35.945Z,36.40
2023-01-08T20:47:07.848Z,35.15
2023-01-08T20:49:39.915Z,37.75
2023-01-08T20:52:11.801Z,36.38
2023-01-08T20:54:43.734Z,36.47
2023-01-08T20:57:15.643Z,34.00
2023-01-08T20:59:47.752Z,38.85
2023-01-08T21:02:20.927Z,38.10
2023-01-08T21:04:55.259Z,35.15
2023-01-08T21:07:30.074Z,36.03
2023-01-08T21:10:02.290Z,36.25
2023-01-08T21:12:35.939Z,36.25
2023-01-08T21:15:09.067Z,38.25
2023-01-08T21:17:40.936Z,38.35
2023-01-08T21:20:13.134Z,36.00
2023-01-08T21:22:45.505Z,39.38
2023-01-08T21:25:19.220Z,35.97
2023-01-08T21:27:51.096Z,35.65
2023-01-08T21:30:23.051Z,35.75
2023-01-08T21:32:54.905Z,37.35
2023-01-08T21:35:27.126Z,36.17
2023-01-08T21:37:59.072Z,38.80
2023-01-08T21:40:31.077Z,38.80
2023-01-08T21:43:21.399Z,35.75
2023-01-08T21:46:05.492Z,40.33
2023-01-08T21:48:37.410Z,36.45
2023-01-08T21:51:29.400Z,34.67
2023-01-08T21:54:01.295Z,37.72
2023-01-08T21:56:33.679Z,36.88
2023-01-08T21:59:05.618Z,38.40
2023-01-08T22:01:37.655Z,37.85
2023-01-08T22:04:09.688Z,35.65
2023-01-08T22:06:43.141Z,37.58
2023-01-08T22:09:15.115Z,37.95
2023-01-08T22:11:47.330Z,36.90
2023-01-08T22:14:19.320Z,37.78
2023-01-08T22:16:51.542Z,39.60
2023-01-08T22:19:23.560Z,38.33
2023-01-08T22:21:55.497Z,38.33
2023-01-08T22:24:27.512Z,37.10
2023-01-08T22:26:59.556Z,37.22
2023-01-08T22:29:31.558Z,35.88
2023-01-08T22:32:04.172Z,36.17
2023-01-08T22:34:36.184Z,37.05
2023-01-08T22:37:08.323Z,39.75
2023-01-08T22:39:40.286Z,40.15
2023-01-08T22:42:12.224Z,35.50
2023-01-08T22:44:44.127Z,38.05
2023-01-08T22:47:16.033Z,35.38
2023-01-08T22:49:49.047Z,35.13
2023-01-08T22:52:21.090Z,38.55
2023-01-08T22:54:55.084Z,36.50
2023-01-08T22:57:27.059Z,36.63
2023-01-08T22:59:58.912Z,35.58
2023-01-08T23:02:30.774Z,36.22
2023-01-08T23:05:02.800Z,36.20
2023-01-08T23:07:34.741Z,37.22
2023-01-08T23:10:07.459Z,34.97
2023-01-08T23:12:39.296Z,34.50
2023-01-08T23:15:11.390Z,37.08
2023-01-08T23:17:52.135Z,37.20
2023-01-08T23:20:25.311Z,35.80
2023-01-08T23:22:57.279Z,38.38
2023-01-08T23:25:30.468Z,36.58
2023-01-08T23:28:02.442Z,34.05
2023-01-08T23:30:34.473Z,35.53
2023-01-08T23:33:06.435Z,35.90
2023-01-08T23:35:38.375Z,35.45
2023-01-08T23:38:10.326Z,36.67
2023-01-08T23:40:43.522Z,34.53
2023-01-08T23:43:15.493Z,34.53
2023-01-08T23:45:47.456Z,35.72
2023-01-08T23:48:19.459Z,34.25
2023-01-08T23:50:51.436Z,34.53
2023-01-08T23:53:23.739Z,34.85
2023-01-08T23:55:55.695Z,35.17
2023-01-08T23:58:27.848Z,35.47
